createdAt,value
2017-09-28T00:02:28.105Z,35.70
2017-09-28T00:04:56.357Z,32.10
2017-09-28T00:07:24.610Z,38.03
2017-09-28T00:09:52.881Z,36.03
2017-09-28T00:12:21.137Z,34.43
2017-09-28T00:14:50.154Z,35.23
2017-09-28T00:17:18.542Z,42.90
2017-09-28T00:19:46.801Z,37.73
2017-09-28T00:22:15.053Z,39.97
2017-09-28T00:24:43.342Z,32.40
2017-09-28T00:27:12.354Z,31.10
2017-09-28T00:29:40.605Z,31.87
2017-09-28T00:32:08.885Z,29.73
2017-09-28T00:34:37.895Z,37.17
2017-09-28T00:37:06.151Z,32.50
2017-09-28T00:39:35.812Z,29.60
2017-09-28T00:42:04.058Z,35.20
2017-09-28T00:44:32.314Z,27.63
2017-09-28T00:47:01.510Z,28.60
2017-09-28T00:49:30.526Z,27.47
2017-09-28T00:51:58.790Z,24.57
2017-09-28T00:54:27.057Z,27.50
2017-09-28T00:56:55.309Z,27.27
2017-09-28T00:59:23.565Z,26.93
2017-09-28T01:01:51.961Z,33.70
2017-09-28T01:04:20.225Z,34.63
2017-09-28T01:06:48.483Z,51.90
2017-09-28T01:09:16.761Z,34.63
2017-09-28T01:11:45.033Z,25.27
2017-09-28T01:14:13.275Z,63.23
2017-09-28T01:16:42.314Z,29.83
2017-09-28T01:19:10.669Z,29.70
2017-09-28T01:21:38.918Z,32.90
2017-09-28T01:24:08.299Z,29.83
2017-09-28T01:26:36.545Z,36.17
2017-09-28T01:29:04.790Z,36.90
2017-09-28T01:31:33.061Z,41.97
2017-09-28T01:34:01.311Z,37.60
2017-09-28T01:36:29.564Z,28.60
2017-09-28T01:38:57.840Z,30.30
2017-09-28T01:41:26.090Z,42.03
2017-09-28T01:43:54.338Z,43.57
2017-09-28T01:46:22.785Z,31.50
2017-09-28T01:48:51.036Z,31.13
2017-09-28T01:51:19.284Z,28.00
2017-09-28T01:53:47.557Z,25.53
2017-09-28T01:56:15.801Z,29.97
2017-09-28T01:58:44.050Z,25.70
2017-09-28T02:01:12.333Z,37.73
2017-09-28T02:03:40.578Z,35.57
2017-09-28T02:06:09.921Z,30.07
2017-09-28T02:08:38.682Z,35.37
2017-09-28T02:11:06.941Z,31.87
2017-09-28T02:13:35.186Z,30.30
2017-09-28T02:16:03.474Z,38.50
2017-09-28T02:18:32.498Z,50.23
2017-09-28T02:21:01.154Z,34.07
2017-09-28T02:23:30.192Z,31.97
2017-09-28T02:25:58.446Z,38.63
2017-09-28T02:28:26.698Z,35.93
2017-09-28T02:30:55.101Z,39.03
2017-09-28T02:33:23.355Z,34.90
2017-09-28T02:35:52.369Z,32.50
2017-09-28T02:38:20.645Z,26.73
2017-09-28T02:40:48.902Z,27.00
2017-09-28T02:43:17.918Z,28.67
2017-09-28T02:45:46.193Z,34.10
2017-09-28T02:48:14.450Z,30.27
2017-09-28T02:50:43.461Z,29.23
2017-09-28T02:53:11.785Z,28.57
2017-09-28T02:55:40.055Z,28.57
2017-09-28T02:58:08.297Z,32.37
2017-09-28T03:00:36.573Z,34.10
2017-09-28T03:03:04.826Z,26.43
2017-09-28T03:05:33.841Z,25.20
2017-09-28T03:08:02.119Z,32.47
2017-09-28T03:10:30.365Z,28.17
2017-09-28T03:12:59.841Z,34.60
2017-09-28T03:15:28.302Z,33.37
2017-09-28T03:17:56.566Z,30.07
2017-09-28T03:20:24.817Z,35.53
2017-09-28T03:22:53.414Z,33.17
2017-09-28T03:25:21.706Z,32.20
2017-09-28T03:27:49.941Z,29.40
2017-09-28T03:30:18.222Z,32.80
2017-09-28T03:32:47.237Z,31.40
2017-09-28T03:35:15.485Z,32.67
2017-09-28T03:37:44.673Z,41.80
2017-09-28T03:40:12.930Z,35.97
2017-09-28T03:42:41.173Z,35.10
2017-09-28T03:45:09.450Z,35.40
2017-09-28T03:47:37.770Z,36.00
2017-09-28T03:50:06.021Z,36.50
2017-09-28T03:52:35.062Z,38.50
2017-09-28T03:55:04.081Z,34.90
2017-09-28T03:57:32.341Z,34.80
2017-09-28T04:00:01.714Z,35.90
2017-09-28T04:02:30.013Z,42.73
2017-09-28T04:04:58.265Z,36.17
2017-09-28T04:07:26.542Z,37.57
2017-09-28T04:09:54.791Z,40.53
2017-09-28T04:12:23.041Z,35.37
2017-09-28T04:14:51.322Z,42.80
2017-09-28T04:17:19.574Z,38.60
2017-09-28T04:19:48.585Z,38.97
2017-09-28T04:22:17.297Z,40.10
2017-09-28T04:24:45.946Z,33.47
2017-09-28T04:27:14.216Z,33.50
2017-09-28T04:29:42.491Z,30.63
2017-09-28T04:32:10.751Z,35.53
2017-09-28T04:34:39.009Z,32.10
2017-09-28T04:37:07.575Z,35.77
2017-09-28T04:39:35.827Z,32.77
2017-09-28T04:42:04.081Z,34.40
2017-09-28T04:44:32.826Z,35.47
2017-09-28T04:47:01.078Z,39.17
2017-09-28T04:49:29.326Z,41.97
2017-09-28T04:51:58.370Z,38.50
2017-09-28T04:54:26.621Z,37.50
2017-09-28T04:56:54.868Z,37.27
2017-09-28T04:59:23.905Z,44.93
2017-09-28T05:01:52.168Z,42.07
2017-09-28T05:04:20.420Z,34.33
2017-09-28T05:06:48.894Z,37.23
2017-09-28T05:09:17.146Z,37.67
2017-09-28T05:11:45.393Z,36.60
2017-09-28T05:14:13.669Z,38.40
2017-09-28T05:16:42.070Z,35.77
2017-09-28T05:19:10.318Z,41.27
2017-09-28T05:21:38.586Z,42.53
2017-09-28T05:24:06.836Z,41.47
2017-09-28T05:26:36.032Z,35.30
2017-09-28T05:29:04.477Z,39.57
2017-09-28T05:31:32.710Z,43.70
2017-09-28T05:34:00.966Z,43.60
2017-09-28T05:36:29.245Z,42.53
2017-09-28T05:38:58.404Z,40.40
2017-09-28T05:41:26.650Z,40.07
2017-09-28T05:43:54.955Z,50.27
2017-09-28T05:46:23.990Z,42.60
2017-09-28T05:48:52.222Z,46.33
2017-09-28T05:51:20.711Z,42.50
2017-09-28T05:53:48.962Z,45.43
2017-09-28T05:56:17.253Z,43.80
2017-09-28T05:58:45.548Z,44.33
2017-09-28T06:01:13.846Z,44.67
2017-09-28T06:03:42.163Z,51.37
2017-09-28T06:06:10.469Z,45.07
2017-09-28T06:08:38.772Z,45.17
2017-09-28T06:11:07.371Z,45.50
2017-09-28T06:13:36.206Z,45.70
2017-09-28T06:16:04.454Z,50.23
2017-09-28T06:18:32.850Z,54.70
2017-09-28T06:21:01.169Z,50.47
2017-09-28T06:23:29.445Z,39.40
2017-09-28T06:25:57.687Z,42.73
2017-09-28T06:28:26.504Z,44.80
2017-09-28T06:30:54.758Z,45.70
2017-09-28T06:33:23.159Z,45.90
2017-09-28T06:35:51.622Z,41.77
2017-09-28T06:38:19.913Z,46.93
2017-09-28T06:40:48.192Z,41.77
2017-09-28T06:43:17.234Z,56.47
2017-09-28T06:45:45.526Z,44.17
2017-09-28T06:48:13.803Z,40.77
2017-09-28T06:50:42.087Z,48.20
2017-09-28T06:53:11.103Z,43.33
2017-09-28T06:55:39.590Z,46.13
2017-09-28T06:58:08.050Z,43.90
2017-09-28T07:00:36.436Z,41.93
2017-09-28T07:03:04.697Z,51.60
2017-09-28T07:05:32.960Z,38.97
2017-09-28T07:08:01.226Z,40.80
2017-09-28T07:10:29.482Z,39.80
2017-09-28T07:12:58.000Z,42.57
2017-09-28T07:15:26.374Z,38.63
2017-09-28T07:17:54.629Z,37.67
2017-09-28T07:20:23.766Z,47.13
2017-09-28T07:22:52.009Z,44.60
2017-09-28T07:25:21.034Z,32.67
2017-09-28T07:27:49.312Z,32.00
2017-09-28T07:30:18.075Z,41.07
2017-09-28T07:32:46.321Z,35.27
2017-09-28T07:35:14.597Z,40.10
2017-09-28T07:37:42.865Z,36.10
2017-09-28T07:40:11.116Z,41.07
2017-09-28T07:42:39.573Z,52.47
2017-09-28T07:45:07.826Z,56.37
2017-09-28T07:47:36.855Z,51.50
2017-09-28T07:50:05.129Z,42.93
2017-09-28T07:52:33.410Z,44.80
2017-09-28T07:55:02.402Z,43.30
2017-09-28T07:57:30.674Z,44.30
2017-09-28T07:59:58.917Z,38.67
2017-09-28T08:02:27.941Z,47.67
2017-09-28T08:04:56.463Z,44.43
2017-09-28T08:07:24.726Z,43.73
2017-09-28T08:09:52.994Z,43.73
2017-09-28T08:12:21.274Z,44.10
2017-09-28T08:14:49.534Z,43.90
2017-09-28T08:17:17.774Z,33.87
2017-09-28T08:19:46.121Z,40.30
2017-09-28T08:22:14.375Z,39.63
2017-09-28T08:24:42.656Z,44.30
2017-09-28T08:27:11.079Z,45.97
2017-09-28T08:29:39.639Z,34.87
2017-09-28T08:32:08.233Z,35.43
2017-09-28T08:34:36.533Z,40.07
2017-09-28T08:37:05.596Z,32.27
2017-09-28T08:39:33.841Z,38.53
2017-09-28T08:42:02.873Z,31.80
2017-09-28T08:44:32.046Z,42.90
2017-09-28T08:47:01.318Z,42.13
2017-09-28T08:49:29.658Z,38.33
2017-09-28T08:51:57.921Z,44.57
2017-09-28T08:54:26.197Z,33.13
2017-09-28T08:56:54.490Z,28.90
2017-09-28T08:59:22.958Z,41.47
2017-09-28T09:01:51.198Z,51.23
2017-09-28T09:04:19.477Z,37.97
2017-09-28T09:06:47.730Z,42.10
2017-09-28T09:09:16.164Z,43.63
2017-09-28T09:11:44.779Z,32.10
2017-09-28T09:14:13.162Z,34.77
2017-09-28T09:16:41.430Z,33.20
2017-09-28T09:19:09.697Z,35.80
2017-09-28T09:21:37.965Z,33.43
2017-09-28T09:24:06.237Z,29.20
2017-09-28T09:26:34.502Z,39.27
2017-09-28T09:29:02.758Z,37.23
2017-09-28T09:31:31.002Z,47.13
2017-09-28T09:34:00.224Z,38.43
2017-09-28T09:36:28.502Z,36.80
2017-09-28T09:38:56.754Z,36.70
2017-09-28T09:41:25.094Z,41.27
2017-09-28T09:43:53.358Z,34.40
2017-09-28T09:46:21.593Z,35.23
2017-09-28T09:48:49.877Z,42.83
2017-09-28T09:51:18.121Z,36.87
2017-09-28T09:53:46.614Z,40.93
2017-09-28T09:56:15.425Z,45.73
2017-09-28T09:58:43.677Z,38.20
2017-09-28T10:01:12.070Z,45.60
2017-09-28T10:03:41.115Z,37.47
2017-09-28T10:06:09.394Z,34.93
2017-09-28T10:08:42.514Z,35.90
2017-09-28T10:11:17.939Z,41.93
2017-09-28T10:13:53.070Z,37.13
2017-09-28T10:16:21.354Z,38.73
2017-09-28T10:18:49.620Z,60.73
2017-09-28T10:21:17.921Z,37.30
2017-09-28T10:23:46.202Z,36.87
2017-09-28T10:26:14.665Z,36.03
2017-09-28T10:28:42.913Z,41.60
2017-09-28T10:31:11.171Z,42.60
2017-09-28T10:33:39.421Z,44.00
2017-09-28T10:36:08.106Z,35.30
2017-09-28T10:38:36.383Z,48.43
2017-09-28T10:41:05.407Z,35.43
2017-09-28T10:43:33.938Z,41.47
2017-09-28T10:46:02.194Z,39.70
2017-09-28T10:48:31.097Z,43.23
2017-09-28T10:50:59.422Z,39.80
2017-09-28T10:53:29.044Z,36.70
2017-09-28T10:55:57.293Z,42.33
2017-09-28T10:58:26.633Z,35.53
2017-09-28T11:00:57.474Z,40.47
2017-09-28T11:03:25.799Z,40.30
2017-09-28T11:05:54.118Z,34.23
2017-09-28T11:08:22.374Z,43.67
2017-09-28T11:10:50.618Z,37.83
2017-09-28T11:13:18.890Z,37.77
2017-09-28T11:15:47.138Z,34.40
2017-09-28T11:18:15.414Z,35.63
2017-09-28T11:20:44.583Z,39.10
2017-09-28T11:23:12.830Z,45.63
2017-09-28T11:25:41.103Z,40.40
2017-09-28T11:28:09.408Z,33.10
2017-09-28T11:30:37.635Z,43.50
2017-09-28T11:33:05.925Z,33.97
2017-09-28T11:35:34.440Z,30.50
2017-09-28T11:38:03.701Z,31.17
2017-09-28T11:40:32.026Z,29.93
2017-09-28T11:43:01.707Z,33.30
2017-09-28T11:45:30.005Z,31.87
2017-09-28T11:48:00.558Z,35.30
2017-09-28T11:50:28.913Z,31.70
2017-09-28T11:52:57.175Z,33.87
2017-09-28T11:55:25.676Z,34.00
2017-09-28T11:57:54.827Z,33.10
2017-09-28T12:00:23.151Z,32.70
2017-09-28T12:02:51.479Z,32.20
2017-09-28T12:05:19.918Z,28.77
2017-09-28T12:07:48.368Z,37.20
2017-09-28T12:10:16.963Z,32.33
2017-09-28T12:12:45.284Z,33.10
2017-09-28T12:15:13.599Z,34.60
2017-09-28T12:17:41.860Z,31.37
2017-09-28T12:20:12.223Z,34.97
2017-09-28T12:22:41.309Z,29.47
2017-09-28T12:25:10.677Z,39.60
2017-09-28T12:27:39.102Z,36.80
2017-09-28T12:30:07.338Z,39.57
2017-09-28T12:32:35.586Z,35.80
2017-09-28T12:35:04.642Z,36.07
2017-09-28T12:37:33.704Z,29.90
2017-09-28T12:40:02.330Z,34.43
2017-09-28T12:42:31.381Z,37.17
2017-09-28T12:44:59.898Z,35.83
2017-09-28T12:47:28.153Z,35.90
2017-09-28T12:49:56.501Z,34.57
2017-09-28T12:52:24.742Z,29.27
2017-09-28T12:54:52.989Z,32.73
2017-09-28T12:57:21.271Z,34.67
2017-09-28T12:59:49.526Z,30.37
2017-09-28T13:02:17.777Z,30.13
2017-09-28T13:04:46.090Z,38.77
2017-09-28T13:07:16.313Z,32.90
2017-09-28T13:09:44.558Z,33.63
2017-09-28T13:12:12.893Z,28.23
2017-09-28T13:14:41.909Z,30.20
2017-09-28T13:17:10.160Z,29.70
2017-09-28T13:19:39.204Z,36.70
2017-09-28T13:22:07.450Z,43.30
2017-09-28T13:24:35.719Z,28.70
2017-09-28T13:27:04.005Z,33.93
2017-09-28T13:29:32.354Z,28.10
2017-09-28T13:32:00.603Z,26.90
2017-09-28T13:34:29.114Z,29.93
2017-09-28T13:36:58.133Z,27.23
2017-09-28T13:39:26.521Z,24.67
2017-09-28T13:41:55.790Z,26.67
2017-09-28T13:44:24.809Z,29.47
2017-09-28T13:46:53.134Z,39.57
2017-09-28T13:49:22.479Z,30.03
2017-09-28T13:51:51.513Z,29.90
2017-09-28T13:54:19.762Z,28.23
2017-09-28T13:56:49.502Z,23.73
2017-09-28T13:59:18.774Z,21.17
2017-09-28T14:01:47.024Z,22.23
2017-09-28T14:04:15.501Z,25.60
2017-09-28T14:06:44.519Z,21.07
2017-09-28T14:09:12.779Z,26.33
2017-09-28T14:11:41.055Z,19.73
2017-09-28T14:14:10.218Z,19.80
2017-09-28T14:16:42.736Z,23.33
2017-09-28T14:19:10.923Z,28.27
2017-09-28T14:21:39.361Z,19.83
2017-09-28T14:24:07.757Z,21.27
2017-09-28T14:26:36.785Z,18.07
2017-09-28T14:29:05.111Z,23.03
2017-09-28T14:31:34.450Z,22.77
2017-09-28T14:34:03.463Z,25.10
2017-09-28T14:36:32.701Z,21.60
2017-09-28T14:39:01.185Z,20.00
2017-09-28T14:41:29.446Z,25.50
2017-09-28T14:43:58.778Z,19.97
2017-09-28T14:46:27.174Z,21.30
2017-09-28T14:48:56.190Z,17.03
2017-09-28T14:51:24.898Z,18.17
2017-09-28T14:53:53.274Z,20.20
2017-09-28T14:56:22.518Z,16.87
2017-09-28T14:58:50.770Z,16.20
2017-09-28T15:01:19.205Z,17.10
2017-09-28T15:03:47.642Z,22.90
2017-09-28T15:06:16.014Z,17.80
2017-09-28T15:08:44.431Z,13.40
2017-09-28T15:11:13.450Z,15.73
2017-09-28T15:13:41.726Z,14.97
2017-09-28T15:16:10.011Z,17.63
2017-09-28T15:18:38.274Z,14.57
2017-09-28T15:21:06.798Z,28.60
2017-09-28T15:23:35.165Z,27.00
2017-09-28T15:26:03.398Z,22.77
2017-09-28T15:28:31.655Z,13.00
2017-09-28T15:31:00.227Z,19.60
2017-09-28T15:33:28.484Z,14.73
2017-09-28T15:35:56.729Z,22.73
2017-09-28T15:38:25.009Z,16.00
2017-09-28T15:40:53.330Z,14.63
2017-09-28T15:43:21.743Z,17.77
2017-09-28T15:45:50.474Z,23.10
2017-09-28T15:48:20.995Z,15.90
2017-09-28T15:50:49.357Z,18.37
2017-09-28T15:53:17.702Z,24.53
2017-09-28T15:55:46.741Z,13.43
2017-09-28T15:58:15.049Z,20.17
2017-09-28T16:00:43.457Z,13.97
2017-09-28T16:03:12.736Z,19.40
2017-09-28T16:05:41.195Z,17.37
2017-09-28T16:08:09.580Z,16.60
2017-09-28T16:10:37.902Z,16.03
2017-09-28T16:13:08.398Z,16.17
2017-09-28T16:15:36.804Z,17.50
2017-09-28T16:18:07.001Z,14.63
2017-09-28T16:20:36.302Z,22.73
2017-09-28T16:23:04.578Z,20.67
2017-09-28T16:25:32.829Z,18.57
2017-09-28T16:28:01.079Z,18.40
2017-09-28T16:30:29.625Z,16.57
2017-09-28T16:32:57.880Z,17.23
2017-09-28T16:35:34.292Z,19.20
2017-09-28T16:38:14.623Z,22.83
2017-09-28T16:40:51.204Z,20.83
2017-09-28T16:43:31.260Z,14.33
2017-09-28T16:46:03.509Z,22.17
2017-09-28T16:48:32.008Z,18.93
2017-09-28T16:51:00.243Z,24.77
2017-09-28T16:53:28.571Z,20.47
2017-09-28T16:55:57.598Z,30.63
2017-09-28T16:58:26.131Z,23.90
2017-09-28T17:00:54.398Z,19.83
2017-09-28T17:03:22.678Z,15.07
2017-09-28T17:05:51.055Z,18.03
2017-09-28T17:08:19.603Z,20.13
2017-09-28T17:10:47.877Z,18.10
2017-09-28T17:13:17.145Z,15.23
2017-09-28T17:15:49.761Z,14.03
2017-09-28T17:18:18.174Z,13.40
2017-09-28T17:20:48.397Z,18.80
2017-09-28T17:23:18.762Z,21.33
2017-09-28T17:25:48.251Z,18.63
2017-09-28T17:28:19.499Z,20.13
2017-09-28T17:30:49.906Z,16.27
2017-09-28T17:33:18.291Z,23.20
2017-09-28T17:35:46.725Z,17.50
2017-09-28T17:38:15.065Z,21.53
2017-09-28T17:40:45.282Z,18.17
2017-09-28T17:43:14.353Z,18.77
2017-09-28T17:45:43.746Z,20.40
2017-09-28T17:48:12.668Z,15.43
2017-09-28T17:50:41.142Z,27.17
2017-09-28T17:53:09.645Z,23.13
2017-09-28T17:55:39.843Z,25.57
2017-09-28T17:58:08.243Z,22.80
2017-09-28T18:00:37.283Z,18.27
2017-09-28T18:03:05.606Z,21.70
2017-09-28T18:05:35.854Z,15.90
2017-09-28T18:08:04.222Z,16.90
2017-09-28T18:10:33.245Z,21.90
2017-09-28T18:13:01.740Z,40.20
2017-09-28T18:15:30.133Z,17.40
2017-09-28T18:18:00.270Z,25.00
2017-09-28T18:20:28.573Z,19.53
2017-09-28T18:22:57.091Z,18.00
2017-09-28T18:25:25.603Z,20.80
2017-09-28T18:27:54.940Z,18.37
2017-09-28T18:30:23.297Z,14.83
2017-09-28T18:32:51.857Z,14.23
2017-09-28T18:35:21.456Z,17.20
2017-09-28T18:37:50.897Z,17.80
2017-09-28T18:40:20.177Z,15.90
2017-09-28T18:42:51.971Z,22.63
2017-09-28T18:45:22.208Z,19.23
2017-09-28T18:47:52.691Z,18.17
2017-09-28T18:50:21.415Z,20.37
2017-09-28T18:52:50.447Z,20.30
2017-09-28T18:55:19.670Z,23.53
2017-09-28T18:57:48.338Z,17.63
2017-09-28T19:00:16.730Z,18.00
2017-09-28T19:02:45.113Z,26.23
2017-09-28T19:05:13.570Z,20.27
2017-09-28T19:07:41.873Z,25.43
2017-09-28T19:10:10.269Z,25.87
2017-09-28T19:12:41.796Z,19.97
2017-09-28T19:15:10.087Z,23.93
2017-09-28T19:17:38.453Z,21.03
2017-09-28T19:20:07.953Z,16.70
2017-09-28T19:22:36.214Z,19.30
2017-09-28T19:25:06.669Z,21.80
2017-09-28T19:27:35.069Z,20.70
2017-09-28T19:30:04.097Z,19.10
2017-09-28T19:32:33.342Z,22.00
2017-09-28T19:35:01.758Z,26.40
2017-09-28T19:37:30.107Z,27.33
2017-09-28T19:39:59.510Z,26.13
2017-09-28T19:42:28.282Z,29.60
2017-09-28T19:44:56.661Z,25.40
2017-09-28T19:47:24.901Z,19.67
2017-09-28T19:49:53.243Z,26.00
2017-09-28T19:52:22.829Z,26.00
2017-09-28T19:54:52.134Z,20.97
2017-09-28T19:57:24.543Z,23.87
2017-09-28T19:59:52.926Z,29.60
2017-09-28T20:02:22.303Z,37.17
2017-09-28T20:04:51.578Z,29.93
2017-09-28T20:07:19.870Z,26.60
2017-09-28T20:09:48.281Z,36.57
2017-09-28T20:12:17.353Z,29.10
2017-09-28T20:14:46.542Z,24.17
2017-09-28T20:17:14.937Z,35.20
2017-09-28T20:19:43.354Z,34.03
2017-09-28T20:22:11.804Z,28.70
2017-09-28T20:24:40.070Z,27.80
2017-09-28T20:27:08.913Z,29.50
2017-09-28T20:29:37.225Z,28.27
2017-09-28T20:32:05.507Z,31.23
2017-09-28T20:34:33.779Z,29.50
2017-09-28T20:37:02.018Z,35.93
2017-09-28T20:39:31.272Z,30.80
2017-09-28T20:42:00.322Z,33.17
2017-09-28T20:44:28.579Z,32.93
2017-09-28T20:46:57.198Z,33.80
2017-09-28T20:49:26.412Z,30.23
2017-09-28T20:51:56.840Z,31.30
2017-09-28T20:54:25.836Z,26.10
2017-09-28T20:56:54.239Z,33.60
2017-09-28T20:59:23.510Z,31.10
2017-09-28T21:01:51.903Z,32.30
2017-09-28T21:04:20.946Z,34.47
2017-09-28T21:06:49.284Z,40.07
2017-09-28T21:09:20.497Z,26.50
2017-09-28T21:11:48.874Z,32.67
2017-09-28T21:14:17.132Z,32.47
2017-09-28T21:16:45.539Z,49.83
2017-09-28T21:19:14.890Z,51.97
2017-09-28T21:21:43.138Z,31.23
2017-09-28T21:24:12.154Z,32.90
2017-09-28T21:26:40.425Z,39.63
2017-09-28T21:29:08.678Z,31.43
2017-09-28T21:31:37.753Z,34.73
2017-09-28T21:34:06.417Z,34.00
2017-09-28T21:36:34.666Z,33.90
2017-09-28T21:39:02.923Z,31.77
2017-09-28T21:41:31.197Z,33.50
2017-09-28T21:44:00.214Z,30.23
2017-09-28T21:46:28.469Z,29.20
2017-09-28T21:48:56.812Z,27.33
2017-09-28T21:51:25.046Z,30.30
2017-09-28T21:53:53.314Z,30.17
2017-09-28T21:56:21.861Z,31.53
2017-09-28T21:58:50.106Z,34.70
2017-09-28T22:01:18.362Z,35.10
2017-09-28T22:03:46.638Z,29.37
2017-09-28T22:06:14.889Z,27.70
2017-09-28T22:08:43.141Z,31.47
2017-09-28T22:11:11.417Z,32.40
2017-09-28T22:13:39.670Z,36.50
2017-09-28T22:16:07.917Z,37.10
2017-09-28T22:18:36.257Z,36.97
2017-09-28T22:21:04.511Z,33.13
2017-09-28T22:23:32.755Z,35.00
2017-09-28T22:26:01.031Z,37.90
2017-09-28T22:28:29.277Z,33.80
2017-09-28T22:30:58.289Z,32.73
2017-09-28T22:33:26.563Z,32.03
2017-09-28T22:35:54.821Z,31.20
2017-09-28T22:38:23.846Z,43.83
2017-09-28T22:40:52.355Z,35.17
2017-09-28T22:43:20.618Z,38.77
2017-09-28T22:45:48.882Z,32.93
2017-09-28T22:48:17.154Z,33.23
2017-09-28T22:50:45.406Z,34.23
2017-09-28T22:53:14.426Z,38.60
2017-09-28T22:55:42.698Z,34.10
2017-09-28T22:58:11.569Z,39.73
2017-09-28T23:00:40.811Z,39.23
2017-09-28T23:03:09.598Z,29.07
2017-09-28T23:05:37.909Z,34.00
2017-09-28T23:08:06.186Z,32.60
2017-09-28T23:10:34.461Z,31.77
2017-09-28T23:13:02.718Z,32.10
2017-09-28T23:15:30.962Z,31.83
2017-09-28T23:17:59.237Z,38.20
2017-09-28T23:20:27.482Z,34.33
2017-09-28T23:22:55.734Z,29.90
2017-09-28T23:25:24.402Z,29.00
2017-09-28T23:27:52.658Z,32.03
2017-09-28T23:30:20.917Z,32.13
2017-09-28T23:32:49.182Z,31.13
2017-09-28T23:35:17.433Z,29.83
2017-09-28T23:37:45.684Z,34.03
2017-09-28T23:40:13.954Z,30.23
2017-09-28T23:42:42.210Z,28.40
2017-09-28T23:45:10.469Z,29.53
2017-09-28T23:47:39.854Z,34.20
2017-09-28T23:50:08.109Z,38.97
2017-09-28T23:52:36.361Z,30.50
2017-09-28T23:55:04.682Z,25.63
2017-09-28T23:57:32.934Z,32.80
